Time;durP1;ratioP1;P1;durP2;ratioP2;P2;SDS_P1;SDS_P2;PMS_P1;PMS_P2;Temp;Humidity;BMP_temperature;BMP_pressure;BME280_temperature;BME280_humidity;BME280_pressure;Samples;Min_cycle;Max_cycle;Signal;HPM_P1;HPM_P2
2023/10/14 00:02:13;;;;;;;16.77;8.90;;;19.70;61.60;;;;;;5094704;28;20940;-73
2023/10/14 00:04:40;;;;;;;17.03;7.63;;;19.80;61.70;;;;;;5094730;28;20445;-73
2023/10/14 00:07:09;;;;;;;15.53;8.67;;;19.80;68.20;;;;;;5095219;28;20532;-73
2023/10/14 00:09:43;;;;;;;16.60;9.37;;;19.50;69.60;;;;;;5094879;28;20937;-73
2023/10/14 00:12:13;;;;;;;18.03;9.63;;;19.20;76.50;;;;;;5095252;28;20445;-76
2023/10/14 00:14:42;;;;;;;16.00;11.63;;;18.60;91.10;;;;;;5094988;28;20527;-76
2023/10/14 00:17:16;;;;;;;89.53;84.57;;;17.60;99.90;;;;;;5094526;28;20449;-76
2023/10/14 00:19:46;;;;;;;522.93;504.90;;;16.90;99.90;;;;;;5094425;28;20484;-77
2023/10/14 00:22:13;;;;;;;729.50;695.90;;;16.70;99.90;;;;;;5094446;28;20449;-77
2023/10/14 00:24:40;;;;;;;749.70;714.73;;;16.50;99.90;;;;;;5094260;28;20449;-77
2023/10/14 00:27:08;;;;;;;870.97;818.37;;;16.50;99.90;;;;;;5094682;28;20476;-77
2023/10/14 00:29:35;;;;;;;913.13;850.73;;;16.40;99.90;;;;;;5093862;28;20819;-76
2023/10/14 00:32:04;;;;;;;925.67;862.23;;;16.50;99.90;;;;;;5094266;28;20457;-76
2023/10/14 00:34:32;;;;;;;966.00;897.80;;;16.40;99.90;;;;;;5094117;28;20449;-76
2023/10/14 00:36:59;;;;;;;979.70;906.90;;;16.40;99.90;;;;;;5094304;28;20480;-76
2023/10/14 00:39:27;;;;;;;981.17;909.30;;;16.40;99.90;;;;;;5093943;28;20473;-76
2023/10/14 00:41:55;;;;;;;975.60;903.17;;;16.40;99.90;;;;;;5094016;28;20452;-76
2023/10/14 00:44:25;;;;;;;1013.60;935.90;;;16.40;99.90;;;;;;5093937;28;20445;-75
2023/10/14 00:46:53;;;;;;;978.43;901.80;;;16.40;99.90;;;;;;5094095;28;20453;-75
2023/10/14 00:49:22;;;;;;;882.30;818.27;;;16.40;99.90;;;;;;5094030;28;20438;-75
2023/10/14 00:51:58;;;;;;;837.33;779.23;;;16.30;99.90;;;;;;5093674;28;20449;-75
2023/10/14 00:54:40;;;;;;;828.17;772.80;;;16.30;99.90;;;;;;5093911;28;20453;-74
2023/10/14 00:57:20;;;;;;;786.10;738.40;;;16.30;99.90;;;;;;5094156;28;20885;-74
2023/10/14 00:59:48;;;;;;;808.80;760.73;;;16.30;99.90;;;;;;5093578;28;20492;-75
2023/10/14 01:02:19;;;;;;;819.40;771.57;;;16.30;99.90;;;;;;5093788;28;20461;-74
2023/10/14 01:04:51;;;;;;;795.17;751.77;;;16.20;99.90;;;;;;5093714;28;20456;-73
2023/10/14 01:07:21;;;;;;;693.70;661.67;;;16.20;99.90;;;;;;5093755;28;20453;-74
2023/10/14 01:09:52;;;;;;;714.53;680.47;;;16.20;99.90;;;;;;5093632;28;20441;-74
2023/10/14 01:12:20;;;;;;;628.60;601.23;;;16.30;99.90;;;;;;5093478;28;20452;-75
2023/10/14 01:14:52;;;;;;;677.43;646.57;;;16.20;99.90;;;;;;5093126;28;20866;-74
2023/10/14 01:17:25;;;;;;;615.47;588.33;;;16.30;99.90;;;;;;5093788;28;20452;-74
2023/10/14 01:19:53;;;;;;;703.23;670.37;;;16.30;99.90;;;;;;5093339;28;20482;-74
2023/10/14 01:22:21;;;;;;;593.17;568.23;;;16.40;99.90;;;;;;5093364;28;20538;-74
2023/10/14 01:24:48;;;;;;;545.60;522.63;;;16.40;99.90;;;;;;5093172;28;20586;-74
2023/10/14 01:27:16;;;;;;;410.37;394.87;;;16.40;99.90;;;;;;5093257;28;20873;-74
2023/10/14 01:29:44;;;;;;;632.63;607.83;;;16.40;99.90;;;;;;5093328;28;20488;-75
2023/10/14 01:32:37;;;;;;;761.20;725.03;;;16.20;99.90;;;;;;5093426;28;20457;-76
2023/10/14 01:35:13;;;;;;;819.40;774.40;;;16.10;99.90;;;;;;5093087;28;20449;-76
2023/10/14 01:37:44;;;;;;;869.47;815.77;;;16.00;99.90;;;;;;5093020;28;20471;-75
2023/10/14 01:40:24;;;;;;;877.80;818.67;;;15.90;99.90;;;;;;5092926;28;20516;-76
2023/10/14 01:42:56;;;;;;;886.80;825.67;;;15.90;99.90;;;;;;5092221;28;20536;-75
2023/10/14 01:45:24;;;;;;;935.03;865.33;;;15.90;99.90;;;;;;5092824;28;20456;-76
2023/10/14 01:48:05;;;;;;;914.60;844.90;;;15.90;99.90;;;;;;5092847;28;20538;-76
2023/10/14 01:50:32;;;;;;;891.93;823.67;;;15.90;99.90;;;;;;5093091;28;20473;-76
2023/10/14 01:53:11;;;;;;;889.20;823.63;;;15.90;99.90;;;;;;5092754;28;20457;-75
2023/10/14 01:55:41;;;;;;;923.63;858.47;;;15.90;99.90;;;;;;5093031;28;20449;-76
2023/10/14 01:58:10;;;;;;;974.43;894.87;;;15.90;99.90;;;;;;5092877;28;20448;-76
2023/10/14 02:00:39;;;;;;;971.40;886.00;;;15.90;99.90;;;;;;5092551;28;21069;-76
2023/10/14 02:03:07;;;;;;;961.70;886.20;;;16.00;99.90;;;;;;5092475;28;20454;-76
2023/10/14 02:05:39;;;;;;;949.67;879.67;;;15.90;99.90;;;;;;5092655;28;20457;-75
2023/10/14 02:08:14;;;;;;;936.83;872.23;;;15.80;99.90;;;;;;5092845;28;20475;-76
2023/10/14 02:10:46;;;;;;;960.03;896.47;;;15.20;99.90;;;;;;5092492;28;20531;-75
2023/10/14 02:13:15;;;;;;;997.87;931.17;;;16.90;99.90;;;;;;5092592;28;20514;-75
2023/10/14 02:15:46;;;;;;;966.47;901.87;;;17.40;99.90;;;;;;5092743;28;20454;-75
2023/10/14 02:18:13;;;;;;;980.27;915.57;;;17.00;99.90;;;;;;5092653;28;20815;-75
2023/10/14 02:20:56;;;;;;;959.10;897.60;;;16.70;99.90;;;;;;5092572;28;20477;-75
2023/10/14 02:23:26;;;;;;;955.13;894.50;;;15.70;99.90;;;;;;5092456;28;20452;-75
2023/10/14 02:25:57;;;;;;;952.90;892.73;;;15.50;99.90;;;;;;5092591;28;20803;-75
2023/10/14 02:28:24;;;;;;;954.70;894.13;;;16.50;99.90;;;;;;5092295;28;20947;-75
2023/10/14 02:30:52;;;;;;;940.67;882.17;;;15.10;99.90;;;;;;5092442;28;20810;-76
2023/10/14 02:33:20;;;;;;;938.80;881.90;;;16.20;99.90;;;;;;5092227;28;20459;-75
2023/10/14 02:35:46;;;;;;;934.93;879.03;;;15.50;99.90;;;;;;5092173;28;20453;-75
2023/10/14 02:38:13;;;;;;;932.07;876.87;;;16.30;99.90;;;;;;5091921;28;20573;-75
2023/10/14 02:40:42;;;;;;;927.93;872.70;;;15.10;99.90;;;;;;5092047;28;20481;-76
2023/10/14 02:43:08;;;;;;;925.87;870.73;;;15.10;99.90;;;;;;5091986;28;20935;-75
2023/10/14 02:45:39;;;;;;;922.10;867.50;;;15.40;99.90;;;;;;5092521;28;20449;-75
2023/10/14 02:48:11;;;;;;;930.20;874.13;;;15.20;99.90;;;;;;5092299;28;20828;-75
2023/10/14 02:50:38;;;;;;;935.27;879.03;;;15.30;99.90;;;;;;5092260;28;20445;-75
2023/10/14 02:53:07;;;;;;;927.97;872.30;;;15.30;99.90;;;;;;5092936;28;20448;-75
2023/10/14 02:58:20;;;;;;;934.57;878.37;;;15.20;99.90;;;;;;5095786;28;20433;-76
2023/10/14 03:00:49;;;;;;;919.37;864.17;;;15.40;99.90;;;;;;5096134;28;20561;-76
2023/10/14 03:03:21;;;;;;;929.20;872.80;;;16.10;99.90;;;;;;5095735;28;20464;-76
2023/10/14 03:05:52;;;;;;;932.63;875.93;;;16.30;99.90;;;;;;5095908;28;20464;-76
2023/10/14 03:08:20;;;;;;;930.87;873.97;;;15.60;99.90;;;;;;5096113;28;20451;-76
2023/10/14 03:10:54;;;;;;;940.87;882.30;;;15.30;99.90;;;;;;5095948;28;20786;-76
2023/10/14 03:13:23;;;;;;;942.67;884.67;;;16.40;99.90;;;;;;5095922;28;20918;-75
2023/10/14 03:15:52;;;;;;;946.33;887.33;;;16.20;99.90;;;;;;5095874;28;20462;-76
2023/10/14 03:18:20;;;;;;;933.27;875.87;;;15.40;99.90;;;;;;5095689;28;20887;-76
2023/10/14 03:21:00;;;;;;;936.30;878.53;;;16.20;99.90;;;;;;5095821;28;20571;-75
2023/10/14 03:23:27;;;;;;;938.23;880.23;;;16.00;99.90;;;;;;5095492;28;20465;-75
2023/10/14 03:26:03;;;;;;;919.63;864.73;;;15.70;99.90;;;;;;5095671;28;20448;-75
2023/10/14 03:28:34;;;;;;;912.97;858.50;;;15.30;99.90;;;;;;5095520;28;20861;-75
2023/10/14 03:31:01;;;;;;;911.07;857.70;;;15.40;99.90;;;;;;5095610;28;20445;-75
2023/10/14 03:33:42;;;;;;;912.67;859.13;;;14.50;99.90;;;;;;5095557;28;20459;-75
2023/10/14 03:36:15;;;;;;;918.60;864.00;;;14.40;99.90;;;;;;5095415;28;20947;-75
2023/10/14 03:38:46;;;;;;;900.27;847.93;;;14.20;99.90;;;;;;5097784;28;20445;-75
2023/10/14 03:41:18;;;;;;;908.47;854.97;;;14.70;99.90;;;;;;5095102;28;20645;-75
2023/10/14 03:43:49;;;;;;;910.57;857.17;;;14.30;99.90;;;;;;5095132;28;20453;-75
2023/10/14 03:46:23;;;;;;;909.47;856.30;;;15.00;99.90;;;;;;5095207;28;20460;-75
2023/10/14 03:48:54;;;;;;;868.83;820.83;;;14.70;99.90;;;;;;5095171;28;21003;-75
2023/10/14 03:51:24;;;;;;;872.53;825.50;;;14.40;99.90;;;;;;5094953;28;20533;-74
2023/10/14 03:53:52;;;;;;;884.63;836.03;;;14.00;99.90;;;;;;5095172;28;20453;-73
2023/10/14 03:56:25;;;;;;;875.43;827.93;;;13.30;99.90;;;;;;5095141;28;20445;-74
2023/10/14 03:58:55;;;;;;;846.50;803.30;;;13.90;99.90;;;;;;5095087;28;20526;-74
2023/10/14 04:01:23;;;;;;;878.37;830.73;;;13.10;99.90;;;;;;5095199;28;20471;-75
2023/10/14 04:03:53;;;;;;;877.40;831.00;;;13.20;99.90;;;;;;5094359;28;20477;-75
2023/10/14 04:06:20;;;;;;;882.50;835.10;;;13.70;99.90;;;;;;5094348;28;20455;-75
2023/10/14 04:08:48;;;;;;;906.67;856.17;;;13.10;99.90;;;;;;5094907;28;20451;-75
2023/10/14 04:11:25;;;;;;;899.73;849.20;;;13.50;99.90;;;;;;5094733;28;20495;-74
2023/10/14 04:14:02;;;;;;;910.63;858.83;;;13.00;99.90;;;;;;5094672;28;20878;-74
2023/10/14 04:16:37;;;;;;;903.80;853.27;;;13.60;99.90;;;;;;5094778;28;20498;-75
2023/10/14 04:19:17;;;;;;;890.47;841.33;;;13.20;99.90;;;;;;5094822;28;20448;-75
2023/10/14 04:21:52;;;;;;;886.67;838.10;;;13.30;99.90;;;;;;5094960;28;20527;-74
2023/10/14 04:24:27;;;;;;;895.87;846.07;;;12.60;99.90;;;;;;5094328;28;20475;-75
2023/10/14 04:27:16;;;;;;;890.40;841.30;;;12.60;99.90;;;;;;5094527;28;20858;-74
2023/10/14 04:29:51;;;;;;;877.33;829.63;;;13.10;99.90;;;;;;5094358;28;20453;-75
2023/10/14 04:32:27;;;;;;;908.70;856.77;;;12.90;99.90;;;;;;5094406;28;20925;-74
2023/10/14 04:34:57;;;;;;;898.50;848.30;;;12.90;99.90;;;;;;5094385;28;20459;-74
2023/10/14 04:37:26;;;;;;;891.87;841.07;;;12.50;99.90;;;;;;5094232;28;20528;-74
2023/10/14 04:39:58;;;;;;;908.40;854.90;;;12.40;99.90;;;;;;5094170;28;20452;-74
2023/10/14 04:42:43;;;;;;;918.37;863.30;;;12.30;99.90;;;;;;5094084;28;20478;-74
2023/10/14 04:45:16;;;;;;;895.93;843.73;;;12.70;99.90;;;;;;5093975;28;20490;-74
2023/10/14 04:47:47;;;;;;;908.40;854.00;;;12.20;99.90;;;;;;5094303;28;20445;-74
2023/10/14 04:50:14;;;;;;;911.10;856.20;;;11.90;99.90;;;;;;5094423;28;20905;-73
2023/10/14 04:52:43;;;;;;;914.90;859.70;;;12.00;99.90;;;;;;5094309;28;20446;-73
2023/10/14 04:55:25;;;;;;;906.00;852.50;;;12.00;99.90;;;;;;5094165;28;21153;-73
2023/10/14 04:58:06;;;;;;;910.33;856.20;;;12.40;99.90;;;;;;5093831;28;20442;-73
2023/10/14 05:00:41;;;;;;;902.23;850.00;;;11.80;99.90;;;;;;5093987;28;20462;-73
2023/10/14 05:03:09;;;;;;;907.47;854.57;;;12.20;99.90;;;;;;5093400;28;20850;-73
2023/10/14 05:05:38;;;;;;;907.30;853.70;;;11.80;99.90;;;;;;5093549;28;20449;-74
2023/10/14 05:08:07;;;;;;;914.67;860.27;;;12.10;99.90;;;;;;5092216;28;20457;-73
2023/10/14 05:10:34;;;;;;;909.97;856.93;;;12.00;99.90;;;;;;5093031;28;20448;-73
2023/10/14 05:13:09;;;;;;;903.10;850.20;;;11.50;99.90;;;;;;5093594;28;20449;-74
2023/10/14 05:15:41;;;;;;;894.07;843.00;;;11.90;99.90;;;;;;5093109;28;20491;-73
2023/10/14 05:18:14;;;;;;;904.27;852.27;;;11.50;99.90;;;;;;5093392;28;20940;-73
2023/10/14 05:20:55;;;;;;;893.40;843.00;;;11.40;99.90;;;;;;5093467;28;20498;-74
2023/10/14 05:23:24;;;;;;;901.27;849.57;;;11.10;99.90;;;;;;5093086;28;20465;-74
2023/10/14 05:25:56;;;;;;;901.10;850.00;;;11.30;99.90;;;;;;5093257;28;20928;-73
2023/10/14 05:28:29;;;;;;;892.43;842.53;;;11.00;99.90;;;;;;5093210;28;20445;-73
2023/10/14 05:30:57;;;;;;;868.30;820.80;;;11.20;99.90;;;;;;5093275;28;20533;-74
2023/10/14 05:33:25;;;;;;;874.87;826.47;;;11.20;99.90;;;;;;5092777;28;20957;-74
2023/10/14 05:35:53;;;;;;;883.57;834.40;;;11.10;99.90;;;;;;5093360;28;20446;-73
2023/10/14 05:38:22;;;;;;;891.00;840.50;;;10.70;99.90;;;;;;5093092;28;20452;-73
2023/10/14 05:40:52;;;;;;;874.57;825.27;;;10.90;99.90;;;;;;5093141;28;20457;-74
2023/10/14 05:43:21;;;;;;;880.37;831.27;;;10.90;99.90;;;;;;5092832;28;20449;-74
2023/10/14 05:45:48;;;;;;;888.87;838.70;;;10.70;99.90;;;;;;5092894;28;20545;-74
2023/10/14 05:48:16;;;;;;;884.40;834.50;;;10.60;99.90;;;;;;5092971;28;20457;-73
2023/10/14 05:50:43;;;;;;;895.87;845.37;;;10.80;99.90;;;;;;5092731;28;20476;-74
2023/10/14 05:53:11;;;;;;;892.23;841.73;;;10.70;99.90;;;;;;5092899;28;20452;-73
2023/10/14 05:55:39;;;;;;;882.07;832.27;;;10.70;99.90;;;;;;5092927;28;20455;-74
2023/10/14 05:58:08;;;;;;;882.30;832.40;;;10.60;99.90;;;;;;5092716;28;20458;-74
2023/10/14 06:00:38;;;;;;;892.27;841.17;;;10.70;99.90;;;;;;5092553;28;20519;-73
2023/10/14 06:03:11;;;;;;;905.20;853.40;;;10.70;99.90;;;;;;5092414;28;20455;-73
2023/10/14 06:05:39;;;;;;;901.67;849.87;;;10.70;99.90;;;;;;5092719;28;20453;-73
2023/10/14 06:08:07;;;;;;;908.30;855.90;;;10.70;99.90;;;;;;5092567;28;20495;-73
2023/10/14 06:10:37;;;;;;;914.27;861.57;;;10.60;99.90;;;;;;5092375;28;20484;-73
2023/10/14 06:13:05;;;;;;;918.03;864.93;;;10.60;99.90;;;;;;5092308;28;20448;-74
2023/10/14 06:15:37;;;;;;;921.60;868.67;;;10.60;99.90;;;;;;5092534;28;20446;-73
2023/10/14 06:18:05;;;;;;;933.87;879.37;;;10.50;99.90;;;;;;5092506;28;20453;-74
2023/10/14 06:20:32;;;;;;;958.60;902.20;;;10.50;99.90;;;;;;5092405;28;20864;-74
2023/10/14 06:23:00;;;;;;;964.50;906.60;;;10.50;99.90;;;;;;5092267;28;20484;-74
2023/10/14 06:25:29;;;;;;;970.30;911.50;;;10.50;99.90;;;;;;5092143;28;20447;-73
2023/10/14 06:27:56;;;;;;;975.73;916.20;;;10.50;99.90;;;;;;5092397;28;20479;-74
2023/10/14 06:30:23;;;;;;;982.03;922.63;;;10.60;99.90;;;;;;5092584;28;20465;-73
2023/10/14 06:32:53;;;;;;;996.40;934.90;;;10.60;99.90;;;;;;5092495;28;21008;-73
2023/10/14 06:35:20;;;;;;;997.00;935.50;;;10.60;99.90;;;;;;5092197;28;20457;-74
2023/10/14 06:37:48;;;;;;;997.90;937.10;;;10.60;99.90;;;;;;5092366;28;20539;-73
2023/10/14 06:40:19;;;;;;;1006.70;943.67;;;10.60;99.90;;;;;;5090957;28;20866;-73
2023/10/14 06:42:49;;;;;;;1014.17;950.37;;;10.60;99.90;;;;;;5091958;28;20448;-73
2023/10/14 06:45:21;;;;;;;1025.40;961.07;;;10.70;99.90;;;;;;5091807;28;20973;-73
2023/10/14 06:47:50;;;;;;;1033.50;969.00;;;10.70;99.90;;;;;;5091905;28;20456;-73
2023/10/14 06:50:20;;;;;;;1023.83;960.03;;;10.70;99.90;;;;;;5091566;28;20458;-73
2023/10/14 06:52:48;;;;;;;1007.30;946.17;;;10.70;99.90;;;;;;5090888;28;20483;-74
2023/10/14 06:55:21;;;;;;;1023.67;960.97;;;10.80;99.90;;;;;;5091783;28;20816;-73
2023/10/14 06:57:53;;;;;;;1030.87;966.97;;;10.80;99.90;;;;;;5091574;28;20456;-74
2023/10/14 07:00:25;;;;;;;1019.47;956.47;;;10.80;99.90;;;;;;5091176;28;20446;-73
2023/10/14 07:02:54;;;;;;;1014.10;952.10;;;10.80;99.90;;;;;;5091193;28;21005;-73
2023/10/14 07:05:21;;;;;;;1032.47;967.97;;;10.90;99.90;;;;;;5091289;28;21004;-73
2023/10/14 07:07:48;;;;;;;1037.53;972.40;;;10.90;99.90;;;;;;5089971;28;20849;-73
2023/10/14 07:10:16;;;;;;;1036.93;971.83;;;10.90;99.90;;;;;;5090094;28;20456;-74
2023/10/14 07:12:43;;;;;;;1020.77;957.50;;;10.90;99.90;;;;;;5089557;28;20488;-74
2023/10/14 07:15:13;;;;;;;1001.80;941.10;;;11.00;99.90;;;;;;5090085;28;20519;-73
2023/10/14 07:17:42;;;;;;;1006.50;945.20;;;11.00;99.90;;;;;;5089993;28;20927;-74
2023/10/14 07:20:11;;;;;;;1012.95;949.25;;;11.00;99.90;;;;;;5091875;28;20497;-75
2023/10/14 07:22:42;;;;;;;1015.17;953.50;;;11.10;99.90;;;;;;5093337;28;20217;-74
2023/10/14 07:25:09;;;;;;;1025.77;962.97;;;11.20;99.90;;;;;;5092961;28;20904;-75
2023/10/14 07:27:38;;;;;;;1029.20;966.40;;;11.20;99.90;;;;;;5092182;28;20458;-74
2023/10/14 07:30:13;;;;;;;1026.60;964.60;;;11.30;99.90;;;;;;5091989;28;20525;-75
2023/10/14 07:32:42;;;;;;;1014.60;954.70;;;11.30;99.90;;;;;;5092329;28;20492;-75
2023/10/14 07:35:11;;;;;;;1017.45;956.85;;;11.40;99.90;;;;;;5091420;28;20445;-73
2023/10/14 07:37:39;;;;;;;1014.40;955.93;;;11.40;99.90;;;;;;5092037;28;20244;-76
2023/10/14 07:40:11;;;;;;;1021.53;962.33;;;11.50;99.90;;;;;;5093095;28;20447;-74
2023/10/14 07:42:39;;;;;;;978.00;923.10;;;11.50;99.90;;;;;;5095185;28;20449;-75
2023/10/14 07:45:10;;;;;;;992.93;937.40;;;11.50;99.90;;;;;;5095789;28;20194;-76
2023/10/14 07:47:40;;;;;;;957.40;905.10;;;11.60;99.90;;;;;;5095969;28;20953;-74
2023/10/14 07:50:09;;;;;;;964.57;911.10;;;11.60;99.90;;;;;;5095625;28;20453;-74
2023/10/14 07:52:36;;;;;;;998.27;942.37;;;11.70;99.90;;;;;;5095517;28;20477;-73
2023/10/14 07:55:04;;;;;;;950.17;897.90;;;11.80;99.90;;;;;;5095253;28;20445;-74
2023/10/14 07:57:31;;;;;;;932.30;881.37;;;11.80;99.90;;;;;;5095535;28;20917;-73
2023/10/14 08:00:09;;;;;;;868.77;821.87;;;11.80;99.90;;;;;;5095495;28;20449;-73
2023/10/14 08:02:36;;;;;;;908.30;858.70;;;11.80;99.90;;;;;;5095246;28;20454;-73
2023/10/14 08:05:05;;;;;;;857.43;811.63;;;11.90;99.90;;;;;;5094952;28;20446;-75
2023/10/14 08:07:34;;;;;;;871.67;824.77;;;11.90;99.90;;;;;;5094727;28;20460;-73
2023/10/14 08:10:16;;;;;;;857.90;812.40;;;12.00;99.90;;;;;;5098249;28;20452;-74
2023/10/14 08:12:43;;;;;;;820.87;777.07;;;12.10;99.90;;;;;;5074764;28;20525;-74
2023/10/14 08:15:12;;;;;;;878.83;830.80;;;12.10;99.90;;;;;;5074923;28;20931;-75
2023/10/14 08:17:40;;;;;;;791.27;750.37;;;12.10;99.90;;;;;;5084486;28;20464;-73
2023/10/14 08:20:12;;;;;;;769.03;729.37;;;12.20;99.90;;;;;;5099206;28;20454;-74
2023/10/14 08:22:39;;;;;;;773.23;733.03;;;12.30;99.90;;;;;;5107758;28;20482;-73
2023/10/14 08:25:07;;;;;;;728.43;691.43;;;12.30;99.90;;;;;;5114506;28;20456;-73
2023/10/14 08:27:34;;;;;;;704.13;668.97;;;12.40;99.90;;;;;;5109430;28;20448;-74
2023/10/14 08:30:01;;;;;;;680.30;646.90;;;12.40;99.90;;;;;;5096180;28;20445;-73
2023/10/14 08:32:30;;;;;;;659.97;627.77;;;12.50;99.90;;;;;;5096361;28;20969;-74
2023/10/14 08:34:57;;;;;;;638.60;608.17;;;12.50;99.90;;;;;;5098554;28;20451;-74
2023/10/14 08:37:24;;;;;;;667.97;635.27;;;12.50;99.90;;;;;;5097419;28;20497;-73
2023/10/14 08:39:51;;;;;;;560.80;535.13;;;12.60;99.90;;;;;;5107342;28;20974;-73
2023/10/14 08:42:18;;;;;;;465.40;445.30;;;12.80;99.90;;;;;;5109682;28;20457;-73
2023/10/14 08:44:49;;;;;;;462.70;442.53;;;12.80;99.90;;;;;;5100621;28;20487;-73
2023/10/14 08:47:16;;;;;;;541.33;515.63;;;12.90;99.90;;;;;;5105177;28;20536;-73
2023/10/14 08:49:45;;;;;;;460.60;440.87;;;13.10;99.90;;;;;;5106380;28;20848;-73
2023/10/14 08:52:16;;;;;;;414.50;397.20;;;13.10;99.90;;;;;;5103436;28;20487;-74
2023/10/14 08:54:44;;;;;;;427.02;408.42;;;13.20;99.90;;;;;;5109741;28;20799;-74
2023/10/14 08:57:11;;;;;;;436.20;417.40;;;13.40;99.90;;;;;;5114126;28;20209;-73
2023/10/14 08:59:40;;;;;;;451.88;431.45;;;13.70;99.90;;;;;;5096283;28;20449;-76
2023/10/14 09:02:12;;;;;;;469.53;449.27;;;14.00;99.30;;;;;;5095757;28;20230;-74
2023/10/14 09:04:40;;;;;;;497.35;474.95;;;14.20;99.30;;;;;;5094197;28;20546;-74
2023/10/14 09:07:14;;;;;;;446.70;428.27;;;14.50;97.90;;;;;;5094371;28;20202;-74
2023/10/14 09:09:41;;;;;;;415.83;398.87;;;14.60;92.90;;;;;;5094647;28;20865;-73
2023/10/14 09:12:10;;;;;;;392.63;377.13;;;14.60;89.60;;;;;;5112886;28;20557;-74
2023/10/14 09:14:37;;;;;;;352.10;338.50;;;14.60;91.90;;;;;;5114328;28;20792;-73
2023/10/14 09:17:08;;;;;;;310.47;298.87;;;14.60;90.60;;;;;;5114413;28;20451;-73
2023/10/14 09:19:43;;;;;;;263.23;253.83;;;14.70;88.90;;;;;;5114149;28;20836;-73
2023/10/14 09:22:21;;;;;;;238.43;230.13;;;14.60;86.10;;;;;;5110534;28;20451;-73
2023/10/14 09:24:50;;;;;;;205.40;198.43;;;14.50;78.90;;;;;;5093272;28;20463;-73
2023/10/14 09:27:17;;;;;;;175.53;167.33;;;14.70;76.90;;;;;;5100127;28;20494;-73
2023/10/14 09:29:44;;;;;;;153.07;147.77;;;15.00;73.60;;;;;;5113711;28;20449;-73
2023/10/14 09:32:11;;;;;;;134.87;130.27;;;15.20;73.80;;;;;;5113342;28;20468;-73
2023/10/14 09:34:41;;;;;;;114.63;110.73;;;15.30;73.90;;;;;;5104465;28;20849;-72
2023/10/14 09:37:12;;;;;;;87.20;84.10;;;15.20;65.70;;;;;;5113653;28;20783;-73
2023/10/14 09:39:44;;;;;;;65.10;62.70;;;15.20;65.70;;;;;;5113600;28;20448;-73
2023/10/14 09:42:12;;;;;;;51.43;49.43;;;15.40;65.90;;;;;;5111818;28;20483;-72
2023/10/14 09:44:43;;;;;;;39.40;37.90;;;15.40;65.90;;;;;;5113140;28;20446;-73
2023/10/14 09:47:13;;;;;;;30.87;29.57;;;15.20;65.70;;;;;;5113317;28;20861;-73
2023/10/14 09:49:40;;;;;;;26.90;25.80;;;15.50;62.60;;;;;;5113202;28;20567;-73
2023/10/14 09:52:14;;;;;;;22.33;21.33;;;15.70;57.90;;;;;;5111491;28;20473;-72
2023/10/14 09:54:43;;;;;;;22.53;21.53;;;15.80;61.80;;;;;;5112794;28;20445;-73
2023/10/14 09:57:11;;;;;;;19.20;18.30;;;15.70;57.90;;;;;;5112982;28;20448;-73
2023/10/14 09:59:41;;;;;;;17.80;17.00;;;16.00;58.10;;;;;;5097427;28;20453;-73
2023/10/14 10:02:09;;;;;;;16.27;15.47;;;16.10;58.30;;;;;;5091514;28;20828;-72
2023/10/14 10:04:39;;;;;;;15.70;14.90;;;16.50;50.00;;;;;;5102166;28;20456;-73
2023/10/14 10:07:19;;;;;;;13.53;12.83;;;16.80;50.10;;;;;;5109299;28;20444;-73
2023/10/14 10:10:19;;;;;;;12.03;11.13;;;16.70;41.30;;;;;;5094841;28;20453;-73
2023/10/14 10:12:53;;;;;;;10.20;9.57;;;16.60;47.50;;;;;;5085918;28;20578;-73
2023/10/14 10:15:20;;;;;;;8.53;8.03;;;16.80;41.40;;;;;;5093240;28;20478;-72
2023/10/14 10:17:55;;;;;;;8.27;7.77;;;16.60;45.80;;;;;;5094954;28;20450;-74
2023/10/14 10:20:29;;;;;;;6.50;6.00;;;16.30;49.20;;;;;;5093705;28;20455;-74
2023/10/14 10:22:58;;;;;;;5.80;5.30;;;16.10;49.10;;;;;;5095735;28;20485;-73
2023/10/14 10:25:51;;;;;;;4.93;4.53;;;15.70;45.40;;;;;;5107431;28;20924;-73
2023/10/14 10:28:38;;;;;;;4.60;4.20;;;15.50;46.50;;;;;;5097274;28;20505;-73
2023/10/14 10:31:07;;;;;;;4.10;3.60;;;15.10;48.60;;;;;;5112126;28;20452;-73
2023/10/14 10:33:53;;;;;;;5.50;4.33;;;14.90;48.50;;;;;;5096422;28;20469;-73
2023/10/14 10:36:27;;;;;;;3.80;2.60;;;14.60;48.20;;;;;;5101001;28;20528;-73
2023/10/14 10:38:55;;;;;;;3.80;2.30;;;14.70;48.30;;;;;;5112290;28;20448;-73
2023/10/14 10:41:26;;;;;;;3.80;2.37;;;14.50;48.10;;;;;;5112201;28;20448;-73
2023/10/14 10:43:58;;;;;;;3.90;2.60;;;14.40;48.00;;;;;;5111987;28;20520;-73
2023/10/14 10:46:47;;;;;;;3.70;2.10;;;14.30;47.90;;;;;;5092620;28;20461;-73
2023/10/14 10:49:16;;;;;;;3.70;2.00;;;14.20;48.40;;;;;;5094680;28;20485;-73
2023/10/14 10:51:50;;;;;;;3.70;2.07;;;14.30;52.50;;;;;;5097083;28;20449;-74
2023/10/14 10:54:22;;;;;;;3.70;2.00;;;14.20;49.20;;;;;;5091278;28;20475;-73
2023/10/14 10:56:50;;;;;;;3.63;1.90;;;14.40;53.90;;;;;;5092010;28;20442;-74
2023/10/14 10:59:17;;;;;;;3.63;1.80;;;14.60;48.20;;;;;;5092091;28;20446;-74
2023/10/14 11:01:46;;;;;;;3.67;1.80;;;14.80;48.40;;;;;;5091130;28;20449;-73
2023/10/14 11:04:14;;;;;;;3.80;2.00;;;15.30;48.80;;;;;;5091291;28;20437;-74
2023/10/14 11:06:41;;;;;;;3.70;2.00;;;16.20;49.60;;;;;;5091048;28;20940;-74
2023/10/14 11:09:12;;;;;;;3.70;2.00;;;17.00;41.50;;;;;;5091228;28;20932;-73
2023/10/14 11:11:39;;;;;;;3.67;1.60;;;17.80;33.20;;;;;;5091466;28;20545;-73
2023/10/14 11:14:17;;;;;;;3.50;1.70;;;18.10;30.80;;;;;;5092251;28;20473;-73
2023/10/14 11:16:45;;;;;;;3.50;1.40;;;18.50;33.80;;;;;;5095711;28;20456;-73
2023/10/14 11:19:12;;;;;;;3.57;1.50;;;18.30;25.80;;;;;;5095227;28;20933;-73
2023/10/14 11:21:39;;;;;;;3.53;1.20;;;18.10;24.10;;;;;;5095806;28;20540;-73
2023/10/14 11:24:08;;;;;;;3.50;1.00;;;17.90;25.50;;;;;;5095575;28;20975;-73
2023/10/14 11:26:37;;;;;;;3.50;1.10;;;17.50;25.10;;;;;;5095652;28;20453;-73
2023/10/14 11:29:06;;;;;;;3.53;1.10;;;16.70;28.60;;;;;;5095555;28;20514;-73
2023/10/14 11:31:36;;;;;;;3.50;0.90;;;17.00;32.40;;;;;;5095378;28;20449;-73
2023/10/14 11:34:03;;;;;;;3.50;1.00;;;16.80;24.80;;;;;;5095524;28;20821;-73
2023/10/14 11:36:30;;;;;;;3.60;1.00;;;17.10;26.70;;;;;;5095571;28;20471;-73
2023/10/14 11:38:59;;;;;;;3.60;1.10;;;17.90;29.80;;;;;;5095450;28;20445;-73
2023/10/14 11:41:27;;;;;;;3.57;0.90;;;18.20;22.00;;;;;;5095582;28;20802;-73
2023/10/14 11:43:54;;;;;;;3.60;0.90;;;18.70;15.20;;;;;;5095220;28;20442;-73
2023/10/14 11:46:21;;;;;;;3.57;0.80;;;19.30;11.70;;;;;;5099762;28;20449;-73
2023/10/14 11:48:49;;;;;;;3.50;0.73;;;19.70;12.00;;;;;;5104296;28;20540;-73
2023/10/14 11:51:21;;;;;;;4.20;1.73;;;20.00;12.00;;;;;;5106719;28;20498;-73
2023/10/14 11:53:52;;;;;;;3.60;0.80;;;19.90;11.60;;;;;;5094807;28;20472;-74
2023/10/14 11:56:20;;;;;;;3.50;0.70;;;19.80;12.00;;;;;;5105548;28;20453;-73
2023/10/14 11:58:49;;;;;;;3.90;1.30;;;18.40;3.40;;;;;;5115147;28;20451;-73
2023/10/14 12:01:16;;;;;;;3.60;0.60;;;18.10;3.60;;;;;;5112178;28;20456;-73
2023/10/14 12:03:43;;;;;;;3.57;0.60;;;18.00;3.10;;;;;;5098580;28;20457;-73
2023/10/14 12:06:13;;;;;;;3.57;0.60;;;18.50;11.10;;;;;;5094985;28;20445;-74
2023/10/14 12:08:40;;;;;;;3.50;0.60;;;18.60;3.70;;;;;;5094866;28;20453;-74
2023/10/14 12:11:08;;;;;;;3.53;0.60;;;19.00;3.80;;;;;;5094427;28;20449;-73
2023/10/14 12:13:36;;;;;;;3.60;0.70;;;19.40;4.10;;;;;;5098888;28;20514;-74
2023/10/14 12:16:05;;;;;;;3.50;0.70;;;19.20;5.60;;;;;;5114590;28;20457;-73
2023/10/14 12:18:34;;;;;;;3.50;0.60;;;19.30;3.80;;;;;;5114869;28;20445;-73
2023/10/14 12:21:02;;;;;;;4.77;1.73;;;20.00;1.00;;;;;;5109877;28;20791;-73
2023/10/14 12:23:32;;;;;;;3.60;0.60;;;19.30;4.00;;;;;;5092255;28;20925;-73
2023/10/14 12:26:00;;;;;;;5.60;1.33;;;18.50;3.50;;;;;;5105735;28;20456;-73
2023/10/14 12:28:30;;;;;;;3.63;0.60;;;17.70;10.40;;;;;;5109655;28;20537;-73
2023/10/14 12:31:02;;;;;;;3.60;0.60;;;17.30;7.40;;;;;;5105522;28;20510;-73
2023/10/14 12:33:31;;;;;;;3.70;0.80;;;17.70;13.20;;;;;;5107527;28;20468;-74
2023/10/14 12:35:59;;;;;;;6.00;1.43;;;17.60;10.50;;;;;;5086263;28;20448;-73